Time;durP1;ratioP1;P1;durP2;ratioP2;P2;SDS_P1;SDS_P2;PMS_P1;PMS_P2;Temp;Humidity;BMP_temperature;BMP_pressure;BME280_temperature;BME280_humidity;BME280_pressure;Samples;Min_cycle;Max_cycle;Signal;HPM_P1;HPM_P2
2024/01/09 00:01:08;;;;;;;2.73;1.73;;;;;;;3.02;42.36;103517.78;5052822;28;20035;-68
2024/01/09 00:03:33;;;;;;;4.73;2.13;;;;;;;3.42;42.03;103515.16;5052252;28;20067;-68
2024/01/09 00:05:59;;;;;;;5.50;2.03;;;;;;;3.25;42.01;103515.78;5051507;28;20032;-68
2024/01/09 00:08:25;;;;;;;3.03;1.47;;;;;;;4.21;40.67;103513.00;5051375;28;20036;-68
2024/01/09 00:10:50;;;;;;;3.33;1.47;;;;;;;4.05;40.90;103512.88;5051700;28;20489;-68
2024/01/09 00:13:15;;;;;;;2.73;1.60;;;;;;;3.79;41.17;103503.56;5051086;28;20340;-68
2024/01/09 00:15:41;;;;;;;3.90;1.80;;;;;;;3.58;41.56;103505.75;5051177;28;20603;-69
2024/01/09 00:18:06;;;;;;;4.40;1.70;;;;;;;3.81;40.29;103520.09;5050217;28;20024;-68
2024/01/09 00:20:32;;;;;;;2.27;1.27;;;;;;;3.94;40.50;103506.19;5050737;28;20052;-68
2024/01/09 00:22:57;;;;;;;2.77;1.23;;;;;;;3.28;41.22;103510.78;5051331;28;20027;-68
2024/01/09 00:25:22;;;;;;;2.07;1.70;;;;;;;3.51;41.44;103509.63;5050715;28;20353;-68
2024/01/09 00:27:48;;;;;;;3.20;1.90;;;;;;;3.36;41.51;103512.16;5051951;28;20336;-68
2024/01/09 00:30:13;;;;;;;1.97;1.23;;;;;;;3.33;40.58;103504.22;5051324;28;20111;-68
2024/01/09 00:32:39;;;;;;;2.37;1.10;;;;;;;3.30;41.29;103515.25;5049438;28;20021;-68
2024/01/09 00:35:07;;;;;;;3.87;2.20;;;;;;;3.69;40.87;103497.81;5052143;28;20032;-69
2024/01/09 00:37:33;;;;;;;3.43;1.63;;;;;;;2.74;42.53;103508.25;5051857;28;20554;-68
2024/01/09 00:39:58;;;;;;;3.17;1.70;;;;;;;3.33;41.15;103499.06;5050144;28;20275;-68
2024/01/09 00:42:24;;;;;;;2.60;1.43;;;;;;;3.18;42.27;103510.19;5051046;28;20029;-68
2024/01/09 00:44:49;;;;;;;3.37;1.80;;;;;;;3.65;40.88;103502.72;5051328;28;20047;-69
2024/01/09 00:47:14;;;;;;;4.77;1.77;;;;;;;3.31;42.09;103500.63;5050243;28;20404;-69
2024/01/09 00:49:40;;;;;;;2.53;1.13;;;;;;;3.43;41.71;103500.50;5051744;28;20013;-69
2024/01/09 00:52:05;;;;;;;2.43;1.23;;;;;;;2.94;41.96;103503.47;5047695;28;20102;-69
2024/01/09 00:54:31;;;;;;;3.20;1.43;;;;;;;3.29;41.92;103502.25;5046947;28;20029;-69
2024/01/09 00:56:56;;;;;;;2.37;1.10;;;;;;;3.25;41.07;103506.31;5051995;28;20481;-68
2024/01/09 00:59:22;;;;;;;2.73;1.17;;;;;;;2.82;41.98;103494.13;5050407;28;20114;-69
2024/01/09 01:01:50;;;;;;;5.03;1.53;;;;;;;3.02;42.20;103502.25;5045963;28;20025;-69
2024/01/09 01:04:19;;;;;;;1.83;1.10;;;;;;;2.60;42.35;103506.47;5044803;28;20029;-68
2024/01/09 01:06:45;;;;;;;0.73;0.73;;;;;;;3.23;42.30;103502.75;5066183;28;20283;-69
2024/01/09 01:09:11;;;;;;;4.97;1.87;;;;;;;2.96;41.98;103492.44;5050103;28;20287;-69
2024/01/09 01:11:37;;;;;;;2.43;1.50;;;;;;;2.99;42.30;103495.22;5050011;28;20350;-68
2024/01/09 01:14:02;;;;;;;2.37;1.50;;;;;;;3.52;41.18;103495.91;5050956;28;20512;-68
2024/01/09 01:16:29;;;;;;;3.23;1.30;;;;;;;3.20;42.13;103498.28;5050509;28;20019;-69
2024/01/09 01:18:55;;;;;;;1.90;1.50;;;;;;;2.92;42.44;103511.13;5051514;28;20492;-69
2024/01/09 01:21:21;;;;;;;3.60;1.87;;;;;;;3.37;41.93;103504.50;5051094;28;20282;-69
2024/01/09 01:23:46;;;;;;;4.40;1.87;;;;;;;3.30;42.05;103509.22;5050677;28;20396;-69
2024/01/09 01:26:11;;;;;;;7.37;1.50;;;;;;;3.47;41.72;103507.66;5051521;28;20294;-69
2024/01/09 01:28:37;;;;;;;6.37;1.33;;;;;;;3.22;41.78;103522.53;5048855;28;20036;-69
2024/01/09 01:31:03;;;;;;;6.33;1.10;;;;;;;2.86;42.85;103516.78;5051217;28;20024;-69
2024/01/09 01:33:29;;;;;;;3.50;1.87;;;;;;;3.43;41.57;103501.41;5049345;28;20036;-68
2024/01/09 01:35:54;;;;;;;4.20;1.70;;;;;;;3.45;40.77;103499.81;5050495;28;20263;-68
2024/01/09 01:38:20;;;;;;;2.37;1.40;;;;;;;2.89;42.26;103516.97;5049920;28;20546;-69
2024/01/09 01:40:45;;;;;;;1.30;1.00;;;;;;;2.78;42.96;103523.16;5050720;28;20029;-68
2024/01/09 01:43:11;;;;;;;2.17;1.43;;;;;;;2.78;42.44;103507.66;5050201;28;20376;-69
2024/01/09 01:45:36;;;;;;;4.03;2.10;;;;;;;3.04;42.28;103505.88;5050174;28;20083;-68
2024/01/09 01:48:03;;;;;;;2.90;1.43;;;;;;;3.07;42.27;103508.63;5051055;28;20564;-68
2024/01/09 01:50:31;;;;;;;2.43;1.63;;;;;;;3.51;41.85;103505.34;5049884;28;20067;-68
2024/01/09 01:52:58;;;;;;;3.80;1.37;;;;;;;2.99;43.03;103512.41;5050742;28;20268;-69
2024/01/09 01:55:25;;;;;;;3.63;1.83;;;;;;;3.15;42.27;103515.19;5046141;28;20272;-69
2024/01/09 01:57:53;;;;;;;3.37;1.60;;;;;;;2.68;43.36;103506.16;5037006;28;20286;-69
2024/01/09 02:00:20;;;;;;;1.50;1.17;;;;;;;3.26;41.43;103509.81;5051149;28;20286;-69
2024/01/09 02:02:48;;;;;;;1.17;1.13;;;;;;;2.61;42.56;103508.22;5048578;28;20700;-68
2024/01/09 02:05:14;;;;;;;3.50;1.13;;;;;;;2.94;42.19;103506.97;5028758;28;20825;-68
2024/01/09 02:07:44;;;;;;;2.87;1.40;;;;;;;2.87;42.48;103503.09;5037030;28;20608;-68
2024/01/09 02:10:10;;;;;;;3.60;2.03;;;;;;;2.97;41.30;103504.56;5047590;28;20757;-70
2024/01/09 02:12:36;;;;;;;1.20;1.10;;;;;;;3.44;41.48;103508.38;5049011;28;20285;-69
2024/01/09 02:15:02;;;;;;;2.00;1.00;;;;;;;3.34;41.29;103500.84;5050707;28;20256;-68
2024/01/09 02:17:29;;;;;;;4.60;1.73;;;;;;;3.43;41.09;103501.41;5048510;28;20392;-69
2024/01/09 02:19:54;;;;;;;3.40;2.07;;;;;;;3.65;41.12;103500.13;5048708;28;20033;-68
2024/01/09 02:22:19;;;;;;;6.10;1.53;;;;;;;3.04;41.32;103500.69;5048749;28;20293;-68
2024/01/09 02:24:45;;;;;;;4.10;1.40;;;;;;;3.63;40.49;103494.00;5049096;28;20036;-68
2024/01/09 02:27:19;;;;;;;1.93;1.33;;;;;;;3.83;40.05;103483.16;5050630;28;20408;-69
2024/01/09 02:29:48;;;;;;;3.37;1.77;;;;;;;3.44;41.18;103485.09;5049670;28;20024;-69
2024/01/09 02:32:15;;;;;;;2.43;1.40;;;;;;;2.96;41.69;103486.38;5049856;28;20283;-68
2024/01/09 02:34:42;;;;;;;2.33;1.23;;;;;;;3.15;41.28;103489.34;5048059;28;20313;-68
2024/01/09 02:37:07;;;;;;;2.30;0.87;;;;;;;2.61;42.60;103487.56;5045700;28;20302;-68
2024/01/09 02:39:32;;;;;;;2.20;1.50;;;;;;;3.38;41.07;103487.31;5043784;28;20275;-68
2024/01/09 02:41:58;;;;;;;3.63;1.90;;;;;;;2.86;41.75;103492.66;5049007;28;20028;-68
2024/01/09 02:44:23;;;;;;;1.77;0.97;;;;;;;3.54;40.67;103484.88;5048367;28;20127;-69
2024/01/09 02:46:48;;;;;;;1.40;1.03;;;;;;;2.52;42.28;103488.75;5043795;28;20470;-69
2024/01/09 02:49:14;;;;;;;2.60;1.10;;;;;;;2.64;41.70;103482.63;5042409;28;20033;-69
2024/01/09 02:51:39;;;;;;;3.53;2.00;;;;;;;2.73;42.13;103493.53;5049049;28;20074;-69
2024/01/09 02:54:05;;;;;;;1.70;0.83;;;;;;;3.06;40.99;103483.56;5049282;28;20039;-68
2024/01/09 02:56:30;;;;;;;5.87;1.53;;;;;;;3.05;41.24;103487.88;5049662;28;20051;-68
2024/01/09 02:58:55;;;;;;;1.87;1.23;;;;;;;2.70;41.54;103483.00;5048604;28;20500;-68
2024/01/09 03:01:23;;;;;;;2.17;1.77;;;;;;;2.94;42.02;103486.28;5047668;28;20561;-68
2024/01/09 03:03:49;;;;;;;1.50;1.30;;;;;;;3.07;41.08;103479.31;5049467;28;20028;-69
2024/01/09 03:06:14;;;;;;;1.40;1.07;;;;;;;3.03;41.81;103483.38;5049753;28;20301;-69
2024/01/09 03:08:40;;;;;;;3.83;1.60;;;;;;;3.44;41.08;103476.44;5047483;28;20029;-69
2024/01/09 03:11:05;;;;;;;2.03;1.17;;;;;;;3.09;41.88;103478.63;5048447;28;20063;-69
2024/01/09 03:13:30;;;;;;;2.53;1.40;;;;;;;3.18;41.21;103479.19;5047325;28;20025;-69
2024/01/09 03:15:56;;;;;;;3.80;1.67;;;;;;;4.11;39.68;103474.44;5047751;28;20025;-68
2024/01/09 03:18:21;;;;;;;3.87;1.77;;;;;;;3.13;41.74;103479.69;5048542;28;20028;-69
2024/01/09 03:20:46;;;;;;;4.90;1.33;;;;;;;3.34;40.40;103480.16;5043848;28;20041;-69
2024/01/09 03:23:12;;;;;;;2.47;1.90;;;;;;;3.27;41.31;103476.28;5034072;28;20029;-69
2024/01/09 03:25:37;;;;;;;1.40;1.27;;;;;;;2.56;42.71;103470.91;5052205;28;20384;-69
2024/01/09 03:28:03;;;;;;;2.37;1.53;;;;;;;3.51;41.17;103469.13;5052643;28;20124;-69
2024/01/09 03:30:29;;;;;;;2.43;1.50;;;;;;;3.43;41.17;103479.81;5053656;28;20025;-69
2024/01/09 03:32:55;;;;;;;3.97;2.57;;;;;;;3.02;42.33;103471.25;5053398;28;20033;-69
2024/01/09 03:35:21;;;;;;;4.50;1.63;;;;;;;3.18;41.35;103465.38;5052833;28;20278;-69
2024/01/09 03:37:46;;;;;;;2.63;1.80;;;;;;;2.97;42.22;103467.50;5052786;28;20458;-69
2024/01/09 03:40:12;;;;;;;3.33;1.93;;;;;;;2.99;42.24;103464.19;5053188;28;20033;-69
2024/01/09 03:42:37;;;;;;;1.37;1.20;;;;;;;3.63;40.36;103463.84;5052358;28;20067;-69
2024/01/09 03:45:03;;;;;;;5.37;1.80;;;;;;;3.25;41.38;103469.25;5053078;28;20404;-68
2024/01/09 03:47:31;;;;;;;4.43;1.70;;;;;;;3.29;41.40;103460.88;5052589;28;20044;-69
2024/01/09 03:49:56;;;;;;;2.33;1.30;;;;;;;3.28;41.58;103464.25;5051367;28;20408;-69
2024/01/09 03:52:23;;;;;;;1.07;0.97;;;;;;;2.28;42.26;103466.50;5053631;28;20743;-69
2024/01/09 03:54:48;;;;;;;6.30;1.47;;;;;;;3.11;41.97;103461.50;5052708;28;20672;-69
2024/01/09 03:57:13;;;;;;;3.20;1.30;;;;;;;2.38;42.75;103463.75;5050863;28;20279;-69
2024/01/09 03:59:40;;;;;;;1.67;1.37;;;;;;;2.31;43.54;103466.72;5053094;28;20040;-69
2024/01/09 04:02:05;;;;;;;1.70;1.50;;;;;;;2.31;43.61;103456.38;5051221;28;20467;-69
2024/01/09 04:04:30;;;;;;;5.80;1.93;;;;;;;2.51;43.13;103456.00;5052071;28;20318;-69
2024/01/09 04:06:56;;;;;;;1.80;1.50;;;;;;;2.61;42.86;103454.00;5053106;28;20476;-69
2024/01/09 04:09:21;;;;;;;2.53;1.63;;;;;;;2.52;42.81;103454.31;5052531;28;20032;-69
2024/01/09 04:11:47;;;;;;;3.00;1.60;;;;;;;2.85;42.22;103454.69;5049791;28;20116;-69
2024/01/09 04:14:12;;;;;;;2.00;1.53;;;;;;;3.02;42.49;103466.09;5052978;28;20043;-69
2024/01/09 04:16:38;;;;;;;1.80;1.20;;;;;;;3.21;41.86;103448.38;5050173;28;20029;-69
2024/01/09 04:19:03;;;;;;;2.33;1.30;;;;;;;3.40;40.96;103445.19;5052444;28;20472;-69
2024/01/09 04:21:29;;;;;;;3.57;1.60;;;;;;;2.98;41.54;103446.94;5051203;28;20059;-69
2024/01/09 04:23:54;;;;;;;4.57;1.60;;;;;;;3.70;40.51;103444.41;5050813;28;20040;-69
2024/01/09 04:26:20;;;;;;;9.93;2.07;;;;;;;3.65;40.74;103450.97;5051160;28;20071;-69
2024/01/09 04:28:45;;;;;;;2.50;1.77;;;;;;;3.05;41.77;103458.56;5052061;28;20033;-69
2024/01/09 04:31:10;;;;;;;4.13;2.07;;;;;;;2.93;42.68;103461.25;5047096;28;20041;-69
2024/01/09 04:33:36;;;;;;;3.43;2.07;;;;;;;3.26;41.93;103465.88;5046913;28;20029;-69
2024/01/09 04:36:01;;;;;;;2.50;1.20;;;;;;;2.95;42.54;103463.91;5048106;28;20029;-69
2024/01/09 04:38:26;;;;;;;5.13;1.53;;;;;;;2.64;42.89;103467.13;5051343;28;20063;-69
2024/01/09 04:40:52;;;;;;;1.70;1.40;;;;;;;2.68;42.57;103466.53;5051593;28;20037;-69
2024/01/09 04:43:18;;;;;;;3.10;1.70;;;;;;;2.91;43.06;103464.53;5050803;28;20557;-69
2024/01/09 04:45:43;;;;;;;2.03;1.47;;;;;;;2.44;43.04;103458.97;5049215;28;20045;-69
2024/01/09 04:48:08;;;;;;;6.07;1.67;;;;;;;1.92;44.41;103463.25;5050889;28;20028;-69
2024/01/09 04:50:34;;;;;;;1.77;1.50;;;;;;;3.34;41.73;103460.34;5051731;28;20415;-70
2024/01/09 04:52:59;;;;;;;1.27;1.17;;;;;;;3.16;41.88;103464.38;5051227;28;20083;-69
2024/01/09 04:55:24;;;;;;;3.57;1.93;;;;;;;2.65;42.71;103458.56;5047051;28;20040;-69
2024/01/09 04:57:50;;;;;;;2.40;1.63;;;;;;;2.42;42.95;103454.47;5034281;28;20033;-69
2024/01/09 05:00:18;;;;;;;2.50;1.40;;;;;;;2.82;42.61;103452.81;5050878;28;20029;-69
2024/01/09 05:02:43;;;;;;;6.23;2.07;;;;;;;2.51;44.18;103450.84;5049405;28;20040;-69
2024/01/09 05:05:09;;;;;;;3.10;1.30;;;;;;;3.17;42.02;103451.56;5051894;28;20759;-69
2024/01/09 05:07:34;;;;;;;3.07;1.63;;;;;;;2.63;43.00;103463.63;5049043;28;20527;-71
2024/01/09 05:09:59;;;;;;;4.33;1.93;;;;;;;3.18;42.08;103463.66;5051779;28;20087;-71
2024/01/09 05:12:25;;;;;;;4.93;2.13;;;;;;;2.69;42.34;103465.72;5051639;28;20122;-70
2024/01/09 05:14:50;;;;;;;2.43;1.30;;;;;;;3.31;41.99;103459.25;5049049;28;20028;-70
2024/01/09 05:17:16;;;;;;;3.93;1.87;;;;;;;2.79;42.09;103457.78;5051499;28;20516;-70
2024/01/09 05:19:41;;;;;;;3.80;1.87;;;;;;;2.86;42.49;103459.97;5051039;28;20044;-70
2024/01/09 05:22:06;;;;;;;1.73;1.07;;;;;;;2.66;42.43;103450.91;5049717;28;20021;-70
2024/01/09 05:24:32;;;;;;;3.17;1.90;;;;;;;2.66;43.12;103460.38;5050915;28;20029;-70
2024/01/09 05:26:57;;;;;;;1.83;1.17;;;;;;;2.44;43.17;103458.97;5049597;28;20396;-70
2024/01/09 05:29:22;;;;;;;3.13;1.77;;;;;;;2.52;43.21;103460.34;5049786;28;20029;-70
2024/01/09 05:31:48;;;;;;;3.53;1.80;;;;;;;2.78;42.84;103460.28;5045874;28;20069;-70
2024/01/09 05:34:13;;;;;;;4.73;2.50;;;;;;;2.87;42.27;103456.59;5029503;28;20485;-70
2024/01/09 05:36:39;;;;;;;1.73;1.33;;;;;;;2.59;42.76;103458.19;5044539;28;20029;-70
2024/01/09 05:39:04;;;;;;;3.33;1.70;;;;;;;2.37;42.54;103462.81;5049504;28;20090;-70
2024/01/09 05:41:29;;;;;;;7.00;1.33;;;;;;;2.95;41.83;103458.75;5048272;28;20044;-70
2024/01/09 05:43:56;;;;;;;3.70;1.67;;;;;;;2.33;42.66;103457.38;5050069;28;20025;-70
2024/01/09 05:46:21;;;;;;;1.23;1.07;;;;;;;3.01;41.32;103469.50;5048526;28;20051;-70
2024/01/09 05:48:47;;;;;;;2.07;1.13;;;;;;;2.64;42.42;103468.03;5049856;28;20274;-70
2024/01/09 05:51:12;;;;;;;2.80;1.90;;;;;;;3.11;41.41;103461.50;5049828;28;20037;-69
2024/01/09 05:53:38;;;;;;;1.20;1.10;;;;;;;2.77;41.51;103472.28;5050300;28;20090;-70
2024/01/09 05:56:04;;;;;;;1.67;1.30;;;;;;;2.11;42.95;103461.09;5045590;28;20032;-69
2024/01/09 05:58:29;;;;;;;1.87;1.50;;;;;;;2.09;42.49;103459.22;5034359;28;20131;-69
2024/01/09 06:00:55;;;;;;;5.27;2.53;;;;;;;2.52;42.84;103467.22;5050934;28;20370;-68
2024/01/09 06:03:20;;;;;;;5.20;2.27;;;;;;;2.70;41.61;103464.94;5051274;28;20051;-70
2024/01/09 06:05:46;;;;;;;3.97;1.73;;;;;;;2.64;41.58;103457.69;5048996;28;20128;-70
2024/01/09 06:08:11;;;;;;;2.63;1.57;;;;;;;2.46;41.71;103466.81;5049010;28;20491;-70
2024/01/09 06:10:36;;;;;;;2.10;1.40;;;;;;;2.36;41.83;103462.72;5049330;28;20041;-70
2024/01/09 06:13:02;;;;;;;1.53;0.97;;;;;;;2.33;42.04;103465.13;5050469;28;20029;-70
2024/01/09 06:15:27;;;;;;;2.23;1.70;;;;;;;2.23;42.28;103468.78;5050653;28;20029;-70
2024/01/09 06:17:54;;;;;;;0.77;0.70;;;;;;;2.32;42.73;103473.66;5044847;28;20120;-71
2024/01/09 06:20:19;;;;;;;1.77;1.13;;;;;;;2.32;42.15;103473.66;5048982;28;20795;-70
2024/01/09 06:22:45;;;;;;;3.60;2.10;;;;;;;1.92;42.80;103476.13;5049956;28;20287;-70
2024/01/09 06:25:11;;;;;;;2.53;1.60;;;;;;;1.99;42.75;103473.19;5049670;28;20473;-70
2024/01/09 06:27:37;;;;;;;6.53;2.30;;;;;;;2.65;41.29;103474.06;5049520;28;20540;-70
2024/01/09 06:30:03;;;;;;;1.30;1.20;;;;;;;2.15;42.06;103478.56;5049429;28;20366;-70
2024/01/09 06:32:31;;;;;;;8.03;2.97;;;;;;;1.97;43.63;103479.94;5047992;28;20020;-70
2024/01/09 06:34:56;;;;;;;1.97;1.60;;;;;;;2.96;40.61;103481.22;5049559;28;20033;-70
2024/01/09 06:37:22;;;;;;;3.53;1.50;;;;;;;2.85;40.79;103478.81;5047587;28;20329;-70
2024/01/09 06:39:47;;;;;;;5.43;1.00;;;;;;;2.81;40.59;103486.28;5049189;28;20048;-71
2024/01/09 06:42:13;;;;;;;4.33;2.10;;;;;;;2.39;41.60;103481.03;5051818;28;20059;-69
2024/01/09 06:44:38;;;;;;;4.27;1.70;;;;;;;2.43;41.44;103498.50;5048594;28;20550;-71
2024/01/09 06:47:04;;;;;;;3.10;1.53;;;;;;;2.34;41.77;103503.06;5039377;28;20407;-71
2024/01/09 06:49:29;;;;;;;4.03;2.00;;;;;;;2.57;40.94;103498.50;5030012;28;20052;-71
2024/01/09 06:51:54;;;;;;;6.73;1.97;;;;;;;2.69;41.03;103496.72;5029293;28;20044;-71
2024/01/09 06:54:20;;;;;;;2.40;1.73;;;;;;;2.37;41.61;103498.09;5047838;28;20461;-71
2024/01/09 06:56:46;;;;;;;3.57;1.73;;;;;;;2.19;41.95;103492.59;5047519;28;20070;-71
2024/01/09 06:59:11;;;;;;;4.33;1.57;;;;;;;2.02;42.03;103494.94;5047362;28;20127;-71
2024/01/09 07:01:38;;;;;;;4.70;1.87;;;;;;;1.77;42.11;103492.38;5043896;28;20040;-70
2024/01/09 07:04:07;;;;;;;3.30;1.17;;;;;;;1.60;42.29;103487.72;5062672;28;20024;-71
2024/01/09 07:06:33;;;;;;;1.80;0.90;;;;;;;2.05;42.02;103489.09;5047192;28;20294;-70
2024/01/09 07:08:58;;;;;;;2.97;1.87;;;;;;;2.24;41.41;103490.31;5048158;28;20280;-71
2024/01/09 07:11:24;;;;;;;4.27;1.97;;;;;;;1.74;42.10;103499.00;5048150;28;20033;-71
2024/01/09 07:13:49;;;;;;;5.70;1.83;;;;;;;1.78;42.15;103501.88;5049022;28;20060;-71
2024/01/09 07:16:14;;;;;;;1.30;0.97;;;;;;;1.65;41.85;103497.56;5048743;28;20116;-71
2024/01/09 07:18:40;;;;;;;7.03;2.57;;;;;;;2.32;41.47;103499.47;5048691;28;20043;-71
2024/01/09 07:21:05;;;;;;;3.63;1.30;;;;;;;1.62;42.59;103502.53;5045155;28;20020;-71
2024/01/09 07:23:31;;;;;;;2.13;1.10;;;;;;;1.24;42.62;103512.72;5049221;28;20040;-71
2024/01/09 07:25:56;;;;;;;3.57;2.03;;;;;;;1.68;42.05;103513.25;5049250;28;20025;-72
2024/01/09 07:28:21;;;;;;;4.30;1.33;;;;;;;2.29;40.82;103509.59;5046264;28;20119;-72
2024/01/09 07:30:47;;;;;;;1.10;1.00;;;;;;;0.91;43.22;103518.13;5049336;28;20076;-72
2024/01/09 07:33:13;;;;;;;2.17;1.10;;;;;;;1.46;42.60;103523.75;5039430;28;20032;-72
2024/01/09 07:35:38;;;;;;;5.40;2.57;;;;;;;1.73;41.82;103516.16;5038699;28;20275;-72
2024/01/09 07:38:07;;;;;;;4.67;2.00;;;;;;;2.23;41.62;103522.97;5045882;28;20039;-72
2024/01/09 07:40:32;;;;;;;1.77;0.97;;;;;;;1.81;41.52;103515.00;5048900;28;20472;-72
2024/01/09 07:42:59;;;;;;;1.03;0.93;;;;;;;0.77;43.66;103530.00;5047468;28;20279;-72
2024/01/09 07:45:29;;;;;;;1.67;1.57;;;;;;;1.13;42.67;103535.13;5049387;28;20492;-72
2024/01/09 07:47:59;;;;;;;2.27;1.50;;;;;;;1.44;42.35;103540.81;5045400;28;20299;-72
2024/01/09 07:50:24;;;;;;;2.53;1.80;;;;;;;1.07;42.47;103545.91;5048546;28;20287;-72
2024/01/09 07:52:50;;;;;;;3.77;1.87;;;;;;;1.49;42.00;103551.44;5047770;28;20782;-72
2024/01/09 07:55:16;;;;;;;8.63;1.53;;;;;;;1.45;41.27;103549.44;5049027;28;20496;-72
2024/01/09 07:57:42;;;;;;;4.37;2.83;;;;;;;0.87;42.77;103552.16;5047933;28;20374;-72
2024/01/09 08:00:08;;;;;;;5.00;1.60;;;;;;;1.50;41.95;103558.38;5048330;28;20444;-72
2024/01/09 08:02:34;;;;;;;2.80;1.77;;;;;;;1.11;42.41;103562.47;5046980;28;20116;-72
2024/01/09 08:04:59;;;;;;;4.27;2.37;;;;;;;2.13;40.40;103557.59;5048117;28;20398;-72
2024/01/09 08:07:24;;;;;;;4.57;2.30;;;;;;;1.81;41.37;103553.69;5048079;28;20059;-72
2024/01/09 08:09:50;;;;;;;4.20;2.10;;;;;;;1.57;41.28;103570.03;5049678;28;20082;-72
2024/01/09 08:12:15;;;;;;;4.83;2.13;;;;;;;2.25;40.23;103554.06;5053000;28;20030;-72
2024/01/09 08:14:40;;;;;;;9.83;2.40;;;;;;;2.37;39.84;103562.63;5052791;28;20053;-72
2024/01/09 08:17:06;;;;;;;3.27;2.03;;;;;;;1.47;41.12;103578.78;5052236;28;20033;-73
2024/01/09 08:19:31;;;;;;;4.47;2.33;;;;;;;2.02;41.07;103569.75;5052622;28;20029;-73
2024/01/09 08:21:57;;;;;;;2.60;1.53;;;;;;;2.10;39.95;103570.31;5052641;28;20503;-73
2024/01/09 08:24:22;;;;;;;4.37;1.83;;;;;;;1.96;40.57;103576.19;5047525;28;20389;-73
2024/01/09 08:26:48;;;;;;;3.80;1.57;;;;;;;2.03;40.00;103568.97;5047630;28;20811;-72
2024/01/09 08:29:15;;;;;;;2.27;1.53;;;;;;;2.41;39.23;103564.63;5065303;28;20028;-73
2024/01/09 08:31:48;;;;;;;3.87;2.77;;;;;;;1.76;40.64;103577.34;5050242;28;20028;-73
2024/01/09 08:34:14;;;;;;;1.67;1.13;;;;;;;1.73;40.72;103588.38;5052636;28;20279;-72
2024/01/09 08:36:43;;;;;;;2.40;1.77;;;;;;;1.92;39.23;103569.00;5050901;28;20274;-73
2024/01/09 08:39:10;;;;;;;8.40;2.30;;;;;;;2.41;39.76;103562.03;5050324;28;20843;-73
2024/01/09 08:41:36;;;;;;;2.83;1.50;;;;;;;1.86;39.48;103572.94;5052051;28;20359;-72
2024/01/09 08:44:01;;;;;;;4.30;2.17;;;;;;;1.88;39.32;103569.59;5051449;28;20287;-72
2024/01/09 08:46:26;;;;;;;8.20;2.17;;;;;;;2.14;39.14;103576.53;5052366;28;20477;-73
2024/01/09 08:48:52;;;;;;;4.07;1.53;;;;;;;2.46;38.91;103571.00;5050492;28;20536;-73
2024/01/09 08:51:18;;;;;;;3.47;1.57;;;;;;;2.44;38.29;103564.81;5050348;28;20511;-72
2024/01/09 08:53:43;;;;;;;3.27;1.70;;;;;;;1.79;39.45;103583.63;5051769;28;20439;-72
2024/01/09 08:56:09;;;;;;;2.77;1.60;;;;;;;1.84;39.55;103566.81;5052199;28;20471;-72
2024/01/09 08:58:35;;;;;;;1.93;1.17;;;;;;;1.91;39.01;103572.38;5049741;28;20045;-72
2024/01/09 09:01:00;;;;;;;5.00;2.07;;;;;;;1.59;39.68;103589.06;5050863;28;20472;-72
2024/01/09 09:03:26;;;;;;;3.63;1.10;;;;;;;1.98;38.32;103582.34;5050554;28;20017;-72
2024/01/09 09:05:51;;;;;;;5.73;2.07;;;;;;;1.76;39.34;103586.00;5049518;28;20564;-73
2024/01/09 09:08:18;;;;;;;6.17;1.70;;;;;;;2.24;38.58;103583.22;5051792;28;20029;-72
2024/01/09 09:10:43;;;;;;;3.50;1.60;;;;;;;1.84;38.41;103592.59;5051456;28;20033;-72
2024/01/09 09:13:09;;;;;;;4.33;2.37;;;;;;;2.28;38.79;103570.66;5049785;28;20276;-72
2024/01/09 09:15:35;;;;;;;2.70;1.73;;;;;;;2.44;38.52;103577.72;5051553;28;20115;-72
2024/01/09 09:18:01;;;;;;;6.17;1.97;;;;;;;2.36;37.86;103576.31;5050412;28;20491;-72
2024/01/09 09:20:26;;;;;;;4.53;1.93;;;;;;;2.08;38.58;103582.19;5050913;28;20063;-72
2024/01/09 09:22:52;;;;;;;1.43;1.07;;;;;;;2.49;37.51;103575.47;5049866;28;20028;-72
2024/01/09 09:25:17;;;;;;;6.93;2.63;;;;;;;2.15;39.04;103568.91;5051649;28;20032;-72
2024/01/09 09:27:45;;;;;;;2.43;1.37;;;;;;;2.36;37.68;103569.50;5050515;28;20431;-72
2024/01/09 09:30:12;;;;;;;1.47;0.90;;;;;;;2.18;37.34;103566.56;5050375;28;20477;-72
2024/01/09 09:32:37;;;;;;;3.00;1.90;;;;;;;2.69;37.02;103574.19;5049673;28;20283;-72
2024/01/09 09:35:03;;;;;;;2.23;0.80;;;;;;;2.39;37.31;103568.81;5049222;28;20271;-72
2024/01/09 09:37:29;;;;;;;3.37;1.53;;;;;;;3.01;36.57;103572.88;5049986;28;20037;-72
2024/01/09 09:39:55;;;;;;;6.47;2.60;;;;;;;2.87;36.97;103574.50;5049969;28;20387;-72
2024/01/09 09:42:21;;;;;;;3.27;1.80;;;;;;;2.45;36.99;103569.19;5049306;28;20021;-73
2024/01/09 09:44:52;;;;;;;1.83;1.07;;;;;;;3.08;36.33;103571.53;5049326;28;20049;-72
2024/01/09 09:47:19;;;;;;;1.73;1.00;;;;;;;2.48;37.18;103566.81;5049082;28;20336;-73
2024/01/09 09:49:46;;;;;;;5.50;2.40;;;;;;;2.77;36.43;103557.53;5049319;28;20286;-72
2024/01/09 09:52:12;;;;;;;4.53;1.67;;;;;;;2.36;36.51;103563.41;5051107;28;20751;-72
2024/01/09 09:54:41;;;;;;;6.30;2.20;;;;;;;2.15;37.45;103563.75;5049967;28;20282;-72
2024/01/09 09:57:08;;;;;;;2.00;1.50;;;;;;;2.67;36.45;103550.84;5049881;28;20066;-72
2024/01/09 09:59:33;;;;;;;3.03;1.93;;;;;;;2.74;35.74;103566.78;5050521;28;20677;-72
2024/01/09 10:02:04;;;;;;;5.80;2.23;;;;;;;2.37;37.06;103563.50;5050326;28;20361;-72
2024/01/09 10:04:30;;;;;;;1.10;0.90;;;;;;;2.86;36.01;103565.00;5050428;28;20111;-72
2024/01/09 10:06:57;;;;;;;2.60;1.73;;;;;;;2.11;36.51;103560.88;5050799;28;20287;-72
2024/01/09 10:09:31;;;;;;;4.83;2.07;;;;;;;2.88;36.05;103561.72;5050019;28;20290;-73
2024/01/09 10:11:56;;;;;;;3.27;1.73;;;;;;;2.79;36.02;103566.28;5050873;28;20271;-72
2024/01/09 10:14:22;;;;;;;4.93;1.40;;;;;;;3.08;35.39;103562.13;5049270;28;20401;-73
2024/01/09 10:16:53;;;;;;;3.97;2.20;;;;;;;3.77;34.79;103565.56;5048748;28;20421;-73
2024/01/09 10:19:21;;;;;;;1.93;1.27;;;;;;;2.31;35.99;103569.97;5049370;28;20020;-73
2024/01/09 10:21:46;;;;;;;0.43;0.43;;;;;;;2.34;36.41;103565.91;5050324;28;20637;-73
2024/01/09 10:24:12;;;;;;;3.03;2.03;;;;;;;2.93;35.00;103562.00;5048342;28;20279;-72
2024/01/09 10:26:37;;;;;;;3.40;2.00;;;;;;;3.27;34.79;103561.63;5048655;28;20021;-72
2024/01/09 10:29:03;;;;;;;2.50;1.60;;;;;;;3.63;34.12;103550.91;5049135;28;20119;-72
2024/01/09 10:31:30;;;;;;;1.77;1.17;;;;;;;2.92;34.72;103556.75;5044381;28;20033;-72
2024/01/09 10:33:56;;;;;;;2.73;1.23;;;;;;;3.98;33.47;103544.38;5045801;28;20030;-73
2024/01/09 10:36:22;;;;;;;2.93;1.23;;;;;;;3.90;33.23;103542.25;5043686;28;20275;-73
2024/01/09 10:38:48;;;;;;;4.50;2.03;;;;;;;4.71;32.17;103533.97;5049274;28;20271;-72
2024/01/09 10:41:20;;;;;;;3.43;2.10;;;;;;;5.83;30.91;103525.41;5049181;28;20029;-72
2024/01/09 10:43:49;;;;;;;1.70;0.87;;;;;;;5.06;31.00;103529.91;5047752;28;21165;-73
2024/01/09 10:46:14;;;;;;;4.30;1.50;;;;;;;6.45;29.50;103526.88;5048631;28;20816;-73
2024/01/09 10:48:41;;;;;;;2.93;1.37;;;;;;;6.39;28.95;103511.00;5048473;28;20272;-73
2024/01/09 10:51:10;;;;;;;4.10;1.60;;;;;;;6.52;28.82;103508.16;5048230;28;20020;-73
2024/01/09 10:53:38;;;;;;;5.37;1.97;;;;;;;6.99;27.89;103507.81;5049776;28;20033;-73
2024/01/09 10:56:08;;;;;;;2.23;1.30;;;;;;;7.05;27.92;103505.50;5049988;28;20009;-72
2024/01/09 10:58:38;;;;;;;3.63;1.70;;;;;;;6.34;29.22;103496.88;5047649;28;20025;-73
2024/01/09 11:01:03;;;;;;;3.90;1.50;;;;;;;6.52;28.34;103502.97;5050043;28;20017;-72
2024/01/09 11:03:29;;;;;;;2.53;1.90;;;;;;;6.30;28.60;103497.53;5048531;28;20032;-72
2024/01/09 11:05:58;;;;;;;1.30;0.87;;;;;;;7.04;27.80;103498.53;5047890;28;20051;-73
2024/01/09 11:08:25;;;;;;;4.37;1.90;;;;;;;7.38;27.12;103489.69;5049898;28;20384;-72
2024/01/09 11:10:52;;;;;;;4.27;2.07;;;;;;;5.67;29.44;103487.34;5048112;28;20017;-72
2024/01/09 11:13:20;;;;;;;1.97;1.20;;;;;;;6.07;28.37;103489.44;5047951;28;20036;-72
2024/01/09 11:15:52;;;;;;;4.03;1.20;;;;;;;5.76;28.52;103485.25;5048042;28;20028;-72
2024/01/09 11:18:18;;;;;;;2.22;1.50;;;;;;;5.55;29.05;103480.72;5048739;28;20495;-72
2024/01/09 11:20:44;;;;;;;2.70;1.17;;;;;;;6.15;27.94;103469.97;5047446;28;20025;-72
2024/01/09 11:23:11;;;;;;;2.10;1.27;;;;;;;6.00;27.45;103474.38;5049745;28;20047;-72
2024/01/09 11:25:37;;;;;;;4.43;1.53;;;;;;;6.36;27.19;103472.75;5048099;28;20468;-71
2024/01/09 11:28:03;;;;;;;4.13;1.90;;;;;;;5.29;28.11;103473.22;5049169;28;20033;-72